createdAt,value
2023-02-16T00:00:03.128Z,3.12
2023-02-16T00:01:04.326Z,2.83
2023-02-16T00:02:06.463Z,2.87
2023-02-16T00:03:07.631Z,2.98
2023-02-16T00:04:08.694Z,2.96
2023-02-16T00:05:09.584Z,3.15
2023-02-16T00:06:10.485Z,3.03
2023-02-16T00:07:11.369Z,3.05
2023-02-16T00:08:12.676Z,3.19
2023-02-16T00:09:13.585Z,3.44
2023-02-16T00:10:14.474Z,3.7
2023-02-16T00:11:15.438Z,3.49
2023-02-16T00:12:16.398Z,3.27
2023-02-16T00:13:17.285Z,2.89
2023-02-16T00:14:18.154Z,2.7
2023-02-16T00:15:19.203Z,2.36
2023-02-16T00:16:20.402Z,2.63
2023-02-16T00:17:21.630Z,2.75
2023-02-16T00:18:22.529Z,2.56
2023-02-16T00:19:23.416Z,2.59
2023-02-16T00:20:24.324Z,2.94
2023-02-16T00:21:25.233Z,3.34
2023-02-16T00:22:26.127Z,3.42
2023-02-16T00:23:27.012Z,3.57
2023-02-16T00:24:27.917Z,3.61
2023-02-16T00:25:28.793Z,3.36
2023-02-16T00:26:29.704Z,3.4
2023-02-16T00:27:30.724Z,3.25
2023-02-16T00:28:31.596Z,3.09
2023-02-16T00:29:32.493Z,3.31
2023-02-16T00:30:33.461Z,3.13
2023-02-16T00:31:34.937Z,3.1
2023-02-16T00:32:36.500Z,3.28
2023-02-16T00:33:37.384Z,3.17
2023-02-16T00:34:38.282Z,3
2023-02-16T00:35:39.177Z,3.04
2023-02-16T00:36:40.096Z,2.76
2023-02-16T00:37:41.012Z,2.73
2023-02-16T00:38:41.930Z,2.91
2023-02-16T00:39:42.831Z,3.1
2023-02-16T00:40:43.852Z,3.21
2023-02-16T00:41:44.733Z,3.25
2023-02-16T00:42:45.597Z,3.21
2023-02-16T00:43:46.495Z,3.24
2023-02-16T00:44:47.384Z,3.2
2023-02-16T00:45:48.425Z,3.14
2023-02-16T00:46:49.803Z,3.09
2023-02-16T00:47:50.711Z,3.01
2023-02-16T00:48:51.644Z,2.91
2023-02-16T00:49:52.534Z,2.72
2023-02-16T00:50:53.454Z,2.66
2023-02-16T00:51:54.374Z,2.82
2023-02-16T00:52:55.280Z,3.02
2023-02-16T00:53:56.160Z,3.21
2023-02-16T00:54:57.068Z,3.25
2023-02-16T00:55:58.043Z,2.96
2023-02-16T00:56:58.960Z,2.79
2023-02-16T00:57:59.877Z,2.87
2023-02-16T00:59:00.913Z,3.01
2023-02-16T01:00:01.868Z,3.3
2023-02-16T01:01:03.141Z,3.2
2023-02-16T01:02:05.368Z,2.99
2023-02-16T01:03:06.279Z,2.8
2023-02-16T01:04:07.199Z,3.02
2023-02-16T01:05:08.308Z,3.01
2023-02-16T01:06:09.219Z,3.2
2023-02-16T01:07:10.128Z,2.83
2023-02-16T01:08:11.065Z,3
2023-02-16T01:09:11.941Z,2.88
2023-02-16T01:10:12.852Z,2.88
2023-02-16T01:11:13.762Z,2.9
2023-02-16T01:12:14.652Z,2.54
2023-02-16T01:13:15.553Z,2.19
2023-02-16T01:14:16.596Z,2.08
2023-02-16T01:15:17.485Z,2.05
2023-02-16T01:16:18.462Z,2.11
2023-02-16T01:17:19.795Z,2.05
2023-02-16T01:18:20.692Z,2.16
2023-02-16T01:19:21.574Z,2.15
2023-02-16T01:20:22.496Z,2.13
2023-02-16T01:21:23.448Z,2.44
2023-02-16T01:22:24.334Z,2.43
2023-02-16T01:23:25.205Z,2.43
2023-02-16T01:24:26.094Z,2.41
2023-02-16T01:25:26.953Z,2.53
2023-02-16T01:26:27.885Z,2.62
2023-02-16T01:27:28.750Z,2.68
2023-02-16T01:28:29.628Z,2.85
2023-02-16T01:29:30.533Z,3.04
2023-02-16T01:30:31.462Z,2.87
2023-02-16T01:31:33.056Z,2.8
2023-02-16T01:32:34.541Z,2.89
2023-02-16T01:33:35.438Z,3
2023-02-16T01:34:36.329Z,2.81
2023-02-16T01:35:37.227Z,2.87
2023-02-16T01:36:38.150Z,2.86
2023-02-16T01:37:39.024Z,2.91
2023-02-16T01:38:39.926Z,2.94
2023-02-16T01:39:40.833Z,2.88
2023-02-16T01:40:41.730Z,2.83
2023-02-16T01:41:42.642Z,2.77
2023-02-16T01:42:43.540Z,2.99
2023-02-16T01:43:44.489Z,3.11
2023-02-16T01:44:45.364Z,2.98
2023-02-16T01:45:46.587Z,2.99
2023-02-16T01:46:47.604Z,2.84
2023-02-16T01:47:48.958Z,2.92
2023-02-16T01:48:49.882Z,2.89
2023-02-16T01:49:50.794Z,2.95
2023-02-16T01:50:51.675Z,2.95
2023-02-16T01:51:52.547Z,2.84
2023-02-16T01:52:53.424Z,2.63
2023-02-16T01:53:54.328Z,2.71
2023-02-16T01:54:55.205Z,2.61
2023-02-16T01:55:56.088Z,2.31
2023-02-16T01:56:56.973Z,2.25
2023-02-16T01:57:57.848Z,2.25
2023-02-16T01:58:58.755Z,2.33
2023-02-16T01:59:59.640Z,2.34
2023-02-16T02:01:00.510Z,2.41
2023-02-16T02:02:01.495Z,2.47
2023-02-16T02:03:02.967Z,2.74
2023-02-16T02:04:04.337Z,2.84
2023-02-16T02:05:05.265Z,2.81
2023-02-16T02:06:06.160Z,2.77
2023-02-16T02:07:07.066Z,2.91
2023-02-16T02:08:07.943Z,2.89
2023-02-16T02:09:08.840Z,2.86
2023-02-16T02:10:09.757Z,2.8
2023-02-16T02:11:10.663Z,2.54
2023-02-16T02:12:11.526Z,2.4
2023-02-16T02:13:12.409Z,2.54
2023-02-16T02:14:13.287Z,2.8
2023-02-16T02:15:14.167Z,2.75
2023-02-16T02:16:15.078Z,2.46
2023-02-16T02:17:16.164Z,2.55
2023-02-16T02:18:17.291Z,2.45
2023-02-16T02:19:18.180Z,2.69
2023-02-16T02:20:19.059Z,2.48
2023-02-16T02:21:20.136Z,2.26
2023-02-16T02:22:21.021Z,2.47
2023-02-16T02:23:21.923Z,2.55
2023-02-16T02:24:22.836Z,2.29
2023-02-16T02:25:23.738Z,2.25
2023-02-16T02:26:24.642Z,2.48
2023-02-16T02:27:25.601Z,2.43
2023-02-16T02:28:26.529Z,2.22
2023-02-16T02:29:27.422Z,2.31
2023-02-16T02:30:28.410Z,2.46
2023-02-16T02:31:29.834Z,2.63
2023-02-16T02:32:31.296Z,2.58
2023-02-16T02:33:32.363Z,2.45
2023-02-16T02:34:33.240Z,2.61
2023-02-16T02:35:34.133Z,2.57
2023-02-16T02:36:35.037Z,2.7
2023-02-16T02:37:35.940Z,2.75
2023-02-16T02:38:36.849Z,2.78
2023-02-16T02:39:37.753Z,2.82
2023-02-16T02:40:38.643Z,2.85
2023-02-16T02:41:39.544Z,2.86
2023-02-16T02:42:40.436Z,2.6
2023-02-16T02:43:41.421Z,2.15
2023-02-16T02:44:42.340Z,2.12
2023-02-16T02:45:43.248Z,1.93
2023-02-16T02:46:44.164Z,1.55
2023-02-16T02:47:45.253Z,1.62
2023-02-16T02:48:46.229Z,1.67
2023-02-16T02:49:47.107Z,1.57
2023-02-16T02:50:48.006Z,1.58
2023-02-16T02:51:48.898Z,1.76
2023-02-16T02:52:49.783Z,1.94
2023-02-16T02:53:50.673Z,2.16
2023-02-16T02:54:51.575Z,1.98
2023-02-16T02:55:52.449Z,1.73
2023-02-16T02:56:53.329Z,1.56
2023-02-16T02:57:54.288Z,1.45
2023-02-16T02:58:55.207Z,1.35
2023-02-16T02:59:56.128Z,1.23
2023-02-16T03:00:57.089Z,1.42
2023-02-16T03:01:58.499Z,1.49
2023-02-16T03:02:59.840Z,1.41
2023-02-16T03:04:00.828Z,1.43
2023-02-16T03:05:01.725Z,1.74
2023-02-16T03:06:02.624Z,1.9
2023-02-16T03:07:03.525Z,1.95
2023-02-16T03:08:04.435Z,1.88
2023-02-16T03:09:05.383Z,1.8
2023-02-16T03:10:06.280Z,1.9
2023-02-16T03:11:07.182Z,1.82
2023-02-16T03:12:08.088Z,1.65
2023-02-16T03:13:08.972Z,1.71
2023-02-16T03:14:09.865Z,1.95
2023-02-16T03:15:10.746Z,1.91
2023-02-16T03:16:11.713Z,1.91
2023-02-16T03:17:12.933Z,1.58
2023-02-16T03:18:13.971Z,1.61
2023-02-16T03:19:15.081Z,1.61
2023-02-16T03:20:15.971Z,1.62
2023-02-16T03:21:16.881Z,1.75
2023-02-16T03:22:17.825Z,1.64
2023-02-16T03:23:18.967Z,1.48
2023-02-16T03:24:19.875Z,1.51
2023-02-16T03:25:20.792Z,1.55
2023-02-16T03:26:21.668Z,1.45
2023-02-16T03:27:23.641Z,1.4
2023-02-16T03:28:24.539Z,1.53
2023-02-16T03:29:25.453Z,1.58
2023-02-16T03:30:26.472Z,1.71
2023-02-16T03:31:28.180Z,1.75
2023-02-16T03:32:29.707Z,2
2023-02-16T03:33:30.654Z,2.05
2023-02-16T03:34:31.642Z,2.04
2023-02-16T03:35:32.550Z,1.84
2023-02-16T03:36:33.439Z,1.47
2023-02-16T03:37:34.361Z,1.43
2023-02-16T03:38:35.273Z,1.48
2023-02-16T03:39:36.411Z,1.25
2023-02-16T03:40:37.272Z,1.66
2023-02-16T03:41:38.161Z,1.93
2023-02-16T03:42:39.068Z,2.14
2023-02-16T03:43:39.960Z,2.01
2023-02-16T03:44:40.859Z,1.98
2023-02-16T03:45:41.763Z,2.09
2023-02-16T03:46:42.867Z,2.08
2023-02-16T03:47:43.858Z,2.07
2023-02-16T03:48:44.770Z,2.08
2023-02-16T03:49:45.816Z,2.13
2023-02-16T03:50:46.707Z,2.06
2023-02-16T03:51:47.618Z,1.95
2023-02-16T03:52:48.499Z,1.76
2023-02-16T03:53:49.409Z,1.62
2023-02-16T03:54:50.335Z,1.42
2023-02-16T03:55:51.461Z,1.39
2023-02-16T03:56:52.424Z,1.23
2023-02-16T03:57:53.322Z,1.1
2023-02-16T03:58:54.197Z,0.96
2023-02-16T03:59:55.067Z,0.93
2023-02-16T04:00:55.801Z,0.91
2023-02-16T04:01:56.738Z,1.22
2023-02-16T04:02:57.787Z,1.59
2023-02-16T04:03:58.739Z,1.66
2023-02-16T04:05:00.024Z,1.5
2023-02-16T04:06:00.950Z,1.43
2023-02-16T04:07:01.853Z,1.44
2023-02-16T04:08:02.745Z,1.39
2023-02-16T04:09:03.653Z,1.63
2023-02-16T04:10:04.549Z,1.65
2023-02-16T04:11:05.911Z,1.85
2023-02-16T04:12:07.449Z,1.72
2023-02-16T04:13:08.346Z,1.62
2023-02-16T04:14:09.236Z,1.74
2023-02-16T04:15:10.164Z,1.84
2023-02-16T04:16:11.063Z,1.57
2023-02-16T04:17:12.197Z,1.47
2023-02-16T04:18:13.083Z,1.46
2023-02-16T04:19:14.373Z,1.63
2023-02-16T04:20:15.287Z,1.75
2023-02-16T04:21:16.167Z,1.86
2023-02-16T04:22:17.071Z,1.59
2023-02-16T04:23:17.989Z,1.37
2023-02-16T04:24:18.917Z,1.46
2023-02-16T04:25:19.798Z,1.51
2023-02-16T04:26:20.680Z,1.3
2023-02-16T04:27:21.702Z,1.5
2023-02-16T04:28:22.622Z,1.57
2023-02-16T04:29:23.514Z,1.71
2023-02-16T04:30:24.459Z,1.69
2023-02-16T04:31:26.146Z,1.82
2023-02-16T04:32:27.613Z,1.8
2023-02-16T04:33:28.609Z,1.48
2023-02-16T04:34:29.517Z,1.49
2023-02-16T04:35:30.572Z,1.68
2023-02-16T04:36:31.488Z,1.67
2023-02-16T04:37:32.487Z,1.7
2023-02-16T04:38:33.376Z,1.9
2023-02-16T04:39:34.269Z,1.67
2023-02-16T04:40:35.128Z,1.84
2023-02-16T04:41:36.003Z,2
2023-02-16T04:42:36.921Z,2.05
2023-02-16T04:43:37.817Z,1.82
2023-02-16T04:44:38.691Z,2.03
2023-02-16T04:45:39.570Z,2.12
2023-02-16T04:46:40.461Z,1.82
2023-02-16T04:47:41.365Z,1.88
2023-02-16T04:48:42.279Z,1.96
2023-02-16T04:49:43.289Z,1.82
2023-02-16T04:50:44.404Z,1.78
2023-02-16T04:51:45.291Z,1.69
2023-02-16T04:52:46.180Z,1.65
2023-02-16T04:53:47.079Z,1.78
2023-02-16T04:54:47.965Z,1.94
2023-02-16T04:55:48.926Z,1.83
2023-02-16T04:56:49.850Z,1.76
2023-02-16T04:57:50.734Z,1.67
2023-02-16T04:58:51.606Z,1.7
2023-02-16T04:59:52.536Z,1.75
2023-02-16T05:00:53.451Z,1.5
2023-02-16T05:01:54.477Z,1.28
2023-02-16T05:02:55.689Z,1.51
2023-02-16T05:03:56.572Z,1.5
2023-02-16T05:04:57.645Z,1.36
2023-02-16T05:05:58.903Z,1.42
2023-02-16T05:06:59.768Z,1.67
2023-02-16T05:08:00.676Z,1.81
2023-02-16T05:09:01.548Z,1.77
2023-02-16T05:10:02.448Z,1.61
2023-02-16T05:11:03.796Z,1.67
2023-02-16T05:12:05.687Z,1.84
2023-02-16T05:13:06.586Z,1.8
2023-02-16T05:14:07.468Z,1.84
2023-02-16T05:15:08.348Z,1.91
2023-02-16T05:16:09.319Z,1.96
2023-02-16T05:17:10.614Z,1.86
2023-02-16T05:18:11.545Z,1.78
2023-02-16T05:19:12.619Z,1.82
2023-02-16T05:20:13.678Z,1.88
2023-02-16T05:21:14.836Z,1.91
2023-02-16T05:22:15.736Z,1.99
2023-02-16T05:23:16.765Z,1.96
2023-02-16T05:24:17.639Z,1.85
2023-02-16T05:25:18.527Z,1.68
2023-02-16T05:26:19.395Z,1.6
2023-02-16T05:27:20.272Z,1.6
2023-02-16T05:28:21.271Z,1.65
2023-02-16T05:29:22.487Z,1.78
2023-02-16T05:30:23.424Z,1.75
2023-02-16T05:31:24.757Z,1.67
2023-02-16T05:32:26.207Z,1.6
2023-02-16T05:33:27.127Z,1.66
2023-02-16T05:34:28.034Z,1.57
2023-02-16T05:35:28.980Z,1.42
2023-02-16T05:36:30.006Z,1.49
2023-02-16T05:37:30.971Z,1.8
2023-02-16T05:38:31.900Z,1.89
2023-02-16T05:39:32.856Z,1.79
2023-02-16T05:40:33.793Z,1.83
2023-02-16T05:41:34.702Z,1.65
2023-02-16T05:42:35.607Z,1.65
2023-02-16T05:43:36.518Z,1.49
2023-02-16T05:44:37.453Z,1.53
2023-02-16T05:45:38.398Z,1.71
2023-02-16T05:46:39.333Z,1.83
2023-02-16T05:47:40.662Z,1.99
2023-02-16T05:48:41.536Z,1.98
2023-02-16T05:49:42.440Z,1.98
2023-02-16T05:50:43.354Z,1.86
2023-02-16T05:51:44.468Z,1.89
2023-02-16T05:52:45.806Z,1.8
2023-02-16T05:53:46.709Z,1.91
2023-02-16T05:54:47.608Z,1.81
2023-02-16T05:55:48.658Z,1.63
2023-02-16T05:56:49.587Z,1.76
2023-02-16T05:57:50.487Z,1.81
2023-02-16T05:58:51.363Z,1.94
2023-02-16T05:59:52.586Z,1.79
2023-02-16T06:00:53.477Z,1.79
2023-02-16T06:01:54.365Z,1.79
2023-02-16T06:02:55.346Z,1.64
2023-02-16T06:03:56.753Z,1.72
2023-02-16T06:04:57.937Z,1.59
2023-02-16T06:05:58.864Z,1.4
2023-02-16T06:06:59.943Z,1.36
2023-02-16T06:08:00.888Z,1.13
2023-02-16T06:09:01.794Z,1.23
2023-02-16T06:10:02.686Z,1.2
2023-02-16T06:11:03.823Z,1.09
2023-02-16T06:12:05.772Z,1.31
2023-02-16T06:13:06.724Z,1.37
2023-02-16T06:14:07.862Z,1.3
2023-02-16T06:15:08.792Z,1.48
2023-02-16T06:16:09.738Z,1.5
2023-02-16T06:17:11.126Z,1.45
2023-02-16T06:18:12.057Z,1.49
2023-02-16T06:19:13.001Z,1.66
2023-02-16T06:20:13.947Z,1.48
2023-02-16T06:21:14.894Z,1.44
2023-02-16T06:22:15.836Z,1.37
2023-02-16T06:23:16.743Z,1.5
2023-02-16T06:24:17.658Z,1.65
2023-02-16T06:25:18.593Z,1.59
2023-02-16T06:26:19.458Z,1.51
2023-02-16T06:27:20.347Z,1.55
2023-02-16T06:28:21.251Z,1.43
2023-02-16T06:29:22.149Z,1.32
2023-02-16T06:30:23.140Z,1.51
2023-02-16T06:31:24.428Z,1.51
2023-02-16T06:32:25.969Z,1.36
2023-02-16T06:33:27.419Z,1.41
2023-02-16T06:34:28.350Z,1.54
2023-02-16T06:35:29.245Z,1.48
2023-02-16T06:36:30.171Z,1.61
2023-02-16T06:37:31.429Z,1.61
2023-02-16T06:38:32.318Z,1.74
2023-02-16T06:39:33.211Z,1.72
2023-02-16T06:40:34.110Z,1.69
2023-02-16T06:41:35.028Z,1.54
2023-02-16T06:42:35.924Z,1.45
2023-02-16T06:43:36.804Z,1.48
2023-02-16T06:44:37.726Z,1.33
2023-02-16T06:45:38.691Z,1.48
2023-02-16T06:46:39.682Z,1.52
2023-02-16T06:47:41.051Z,1.46
2023-02-16T06:48:41.946Z,1.36
2023-02-16T06:49:42.835Z,1.52
2023-02-16T06:50:44.415Z,1.53
2023-02-16T06:51:45.382Z,1.27
2023-02-16T06:52:46.305Z,1.13
2023-02-16T06:53:47.259Z,1.36
2023-02-16T06:54:48.134Z,1.64
2023-02-16T06:55:49.021Z,1.78
2023-02-16T06:56:49.934Z,1.76
2023-02-16T06:57:50.837Z,1.73
2023-02-16T06:58:51.760Z,1.86
2023-02-16T06:59:52.705Z,1.78
2023-02-16T07:00:53.690Z,1.71
2023-02-16T07:01:54.968Z,1.65
2023-02-16T07:02:55.903Z,1.73
2023-02-16T07:03:57.163Z,1.62
2023-02-16T07:04:58.074Z,1.57
2023-02-16T07:05:58.965Z,1.59
2023-02-16T07:06:59.951Z,1.46
2023-02-16T07:08:01.089Z,1.33
2023-02-16T07:09:02.000Z,1.24
2023-02-16T07:10:02.915Z,1.21
2023-02-16T07:11:04.092Z,1.05
2023-02-16T07:12:06.496Z,1.1
2023-02-16T07:13:07.376Z,1.38
2023-02-16T07:14:08.291Z,1.69
2023-02-16T07:15:09.189Z,1.7
2023-02-16T07:16:10.081Z,1.84
2023-02-16T07:17:11.144Z,2.04
2023-02-16T07:18:12.069Z,2
2023-02-16T07:19:13.111Z,1.89
2023-02-16T07:20:14.331Z,1.76
2023-02-16T07:21:15.240Z,2
2023-02-16T07:22:16.166Z,2.12
2023-02-16T07:23:17.179Z,2.24
2023-02-16T07:24:18.099Z,2.34
2023-02-16T07:25:19.005Z,2.43
2023-02-16T07:26:19.904Z,2.37
2023-02-16T07:27:20.785Z,2.24
2023-02-16T07:28:21.679Z,2.32
2023-02-16T07:29:22.571Z,2.42
2023-02-16T07:30:23.556Z,2.39
2023-02-16T07:31:24.875Z,2.44
2023-02-16T07:32:26.328Z,2.48
2023-02-16T07:33:27.497Z,2.49
2023-02-16T07:34:28.389Z,2.57
2023-02-16T07:35:29.317Z,2.7
2023-02-16T07:36:30.256Z,2.92
2023-02-16T07:37:31.354Z,3.05
2023-02-16T07:38:32.312Z,3.07
2023-02-16T07:39:33.215Z,3.26
2023-02-16T07:40:34.141Z,3.44
2023-02-16T07:41:35.051Z,3.5
2023-02-16T07:42:35.947Z,3.57
2023-02-16T07:43:36.868Z,3.59
2023-02-16T07:44:37.780Z,3.63
2023-02-16T07:45:38.750Z,3.75
2023-02-16T07:46:39.914Z,3.82
2023-02-16T07:47:40.823Z,3.87
2023-02-16T07:48:41.714Z,4.04
2023-02-16T07:49:42.603Z,4.07
2023-02-16T07:50:43.571Z,3.88
2023-02-16T07:51:44.498Z,4.07
2023-02-16T07:52:45.554Z,4.29
2023-02-16T07:53:46.586Z,4.56
2023-02-16T07:54:47.494Z,4.28
2023-02-16T07:55:48.359Z,4.51
2023-02-16T07:56:49.268Z,4.75
2023-02-16T07:57:50.161Z,4.64
2023-02-16T07:58:51.058Z,4.78
2023-02-16T07:59:51.913Z,4.94
2023-02-16T08:00:52.785Z,5.1
2023-02-16T08:01:53.699Z,5.1
2023-02-16T08:02:55.428Z,5.3
2023-02-16T08:03:56.860Z,5.52
2023-02-16T08:04:57.719Z,5.59
2023-02-16T08:05:58.617Z,5.7
2023-02-16T08:06:59.487Z,5.71
2023-02-16T08:08:00.383Z,5.67
2023-02-16T08:09:01.446Z,5.93
2023-02-16T08:10:02.373Z,5.89
2023-02-16T08:11:03.625Z,5.79
2023-02-16T08:12:05.508Z,5.48
2023-02-16T08:13:06.361Z,5.58
2023-02-16T08:14:07.262Z,5.57
2023-02-16T08:15:08.147Z,5.79
2023-02-16T08:16:09.152Z,5.24
2023-02-16T08:17:10.426Z,5.67
2023-02-16T08:18:11.472Z,5.85
2023-02-16T08:19:12.395Z,6.07
2023-02-16T08:20:13.274Z,6.36
2023-02-16T08:21:14.240Z,6.5
2023-02-16T08:22:15.349Z,6.63
2023-02-16T08:23:16.311Z,6.59
2023-02-16T08:24:17.227Z,6.78
2023-02-16T08:25:18.140Z,6.77
2023-02-16T08:26:19.044Z,6.79
2023-02-16T08:27:20.088Z,6.93
2023-02-16T08:28:20.937Z,6.97
2023-02-16T08:29:21.814Z,7.09
2023-02-16T08:30:22.689Z,6.98
2023-02-16T08:31:23.934Z,7.15
2023-02-16T08:32:25.504Z,7.24
2023-02-16T08:33:26.694Z,7.32
2023-02-16T08:34:27.602Z,7.42
2023-02-16T08:35:28.510Z,7.19
2023-02-16T08:36:29.414Z,7.18
2023-02-16T08:37:30.453Z,7.38
2023-02-16T08:38:31.351Z,7.11
2023-02-16T08:39:32.528Z,6.92
2023-02-16T08:40:33.450Z,7.11
2023-02-16T08:41:34.325Z,7.29
2023-02-16T08:42:35.326Z,7.56
2023-02-16T08:43:36.185Z,7.41
2023-02-16T08:44:37.084Z,7.03
2023-02-16T08:45:38.218Z,6.25
2023-02-16T08:46:39.347Z,7.22
2023-02-16T08:47:40.255Z,7.61
2023-02-16T08:48:41.125Z,7.64
2023-02-16T08:49:42.004Z,7.84
2023-02-16T08:50:42.897Z,8.05
2023-02-16T08:51:43.796Z,8.21
2023-02-16T08:52:44.697Z,8.27
2023-02-16T08:53:45.573Z,8.25
2023-02-16T08:54:46.535Z,8.31
2023-02-16T08:55:47.411Z,8.11
2023-02-16T08:56:48.300Z,7.99
2023-02-16T08:57:49.163Z,7.88
2023-02-16T08:58:50.028Z,7.36
2023-02-16T08:59:50.896Z,7.4
2023-02-16T09:00:51.809Z,7.34
2023-02-16T09:01:53.028Z,7.54
2023-02-16T09:02:53.927Z,7.73
2023-02-16T09:03:54.923Z,8.16
2023-02-16T09:04:58.835Z,8.4
2023-02-16T09:05:56.545Z,8.55
2023-02-16T09:06:57.416Z,8.44
2023-02-16T09:07:58.322Z,8.31
2023-02-16T09:08:59.295Z,8.37
2023-02-16T09:10:00.271Z,8.2
2023-02-16T09:11:01.152Z,8.04
2023-02-16T09:12:02.309Z,7.71
2023-02-16T09:13:03.188Z,7.84
2023-02-16T09:14:04.068Z,8
2023-02-16T09:15:04.986Z,8.23
2023-02-16T09:16:06.226Z,8.42
2023-02-16T09:17:07.894Z,8.24
2023-02-16T09:18:09.342Z,8.2
2023-02-16T09:19:10.379Z,7.63
2023-02-16T09:20:11.588Z,7.4
2023-02-16T09:21:12.455Z,7.42
2023-02-16T09:22:13.321Z,7.2
2023-02-16T09:23:14.191Z,7
2023-02-16T09:24:15.077Z,7.03
2023-02-16T09:25:16.146Z,6.88
2023-02-16T09:26:17.038Z,6.96
2023-02-16T09:27:17.929Z,7.1
2023-02-16T09:28:18.790Z,6.95
2023-02-16T09:29:19.641Z,7.02
2023-02-16T09:30:20.571Z,7.64
2023-02-16T09:31:22.010Z,7.47
2023-02-16T09:32:23.332Z,7.08
2023-02-16T09:33:24.166Z,7.3
2023-02-16T09:34:26.830Z,7.5
2023-02-16T09:35:25.707Z,7.57
2023-02-16T09:36:26.600Z,7.25
2023-02-16T09:37:27.465Z,7.15
2023-02-16T09:38:28.327Z,7.03
2023-02-16T09:39:29.245Z,7.22
2023-02-16T09:40:30.234Z,7.26
2023-02-16T09:41:31.256Z,7.46
2023-02-16T09:42:32.100Z,7.38
2023-02-16T09:43:32.950Z,7.52
2023-02-16T09:44:33.903Z,7.66
2023-02-16T09:45:34.777Z,7.64
2023-02-16T09:46:35.865Z,7.55
2023-02-16T09:47:36.963Z,7.45
2023-02-16T09:48:37.837Z,7.37
2023-02-16T09:49:38.743Z,7.31
2023-02-16T09:50:53.218Z,7.61
2023-02-16T09:51:40.202Z,7.12
2023-02-16T09:52:41.192Z,7.44
2023-02-16T09:53:42.083Z,7.6
2023-02-16T09:54:42.979Z,7.62
2023-02-16T09:55:43.887Z,7.57
2023-02-16T09:56:44.778Z,7.59
2023-02-16T09:57:45.642Z,7.74
2023-02-16T09:58:46.716Z,7.68
2023-02-16T09:59:47.594Z,7.75
2023-02-16T10:00:48.456Z,7.78
2023-02-16T10:01:49.298Z,7.85
2023-02-16T10:02:50.246Z,7.73
2023-02-16T10:03:51.498Z,7.43
2023-02-16T10:04:52.375Z,7.55
2023-02-16T10:05:53.215Z,7.65
2023-02-16T10:06:54.109Z,7.83
2023-02-16T10:07:55.111Z,7.7
2023-02-16T10:08:55.997Z,7.89
2023-02-16T10:09:56.900Z,8.04
2023-02-16T10:10:57.955Z,7.96
2023-02-16T10:11:58.803Z,7.89
2023-02-16T10:12:59.656Z,8.16
2023-02-16T10:14:00.515Z,8.27
2023-02-16T10:15:01.393Z,8.09
2023-02-16T10:16:02.324Z,7.94
2023-02-16T10:17:03.503Z,8.39
2023-02-16T10:18:04.340Z,8.36
2023-02-16T10:19:05.218Z,8.5
2023-02-16T10:20:06.109Z,8.5
2023-02-16T10:21:07.405Z,8.4
2023-02-16T10:22:08.778Z,8.4
2023-02-16T10:23:09.687Z,8.46
2023-02-16T10:24:10.587Z,8.54
2023-02-16T10:25:11.469Z,8.45
2023-02-16T10:26:12.398Z,8.65
2023-02-16T10:27:13.276Z,8.8
2023-02-16T10:28:14.159Z,8.84
2023-02-16T10:29:15.026Z,8.86
2023-02-16T10:30:15.923Z,8.63
2023-02-16T10:31:16.989Z,8.8
2023-02-16T10:32:18.416Z,9
2023-02-16T10:33:19.291Z,9.27
2023-02-16T10:34:22.598Z,9.35
2023-02-16T10:35:21.236Z,9.39
2023-02-16T10:36:22.109Z,9.27
2023-02-16T10:37:22.980Z,9.45
2023-02-16T10:38:23.850Z,9.42
2023-02-16T10:39:24.700Z,9.03
2023-02-16T10:40:25.642Z,9.24
2023-02-16T10:41:26.809Z,9.55
2023-02-16T10:42:27.704Z,9.66
2023-02-16T10:43:28.616Z,9.72
2023-02-16T10:44:29.458Z,9.75
2023-02-16T10:45:30.337Z,9.55
2023-02-16T10:46:31.282Z,9.55
2023-02-16T10:47:32.489Z,9.75
2023-02-16T10:48:33.339Z,9.69
2023-02-16T10:49:34.246Z,9.64
2023-02-16T10:50:35.137Z,9.76
2023-02-16T10:51:35.985Z,9.82
2023-02-16T10:52:36.848Z,9.87
2023-02-16T10:53:37.737Z,10.04
2023-02-16T10:54:38.630Z,10.03
2023-02-16T10:55:39.640Z,10.06
2023-02-16T10:56:40.800Z,10.17
2023-02-16T10:57:41.681Z,10.28
2023-02-16T10:58:42.816Z,10.31
2023-02-16T10:59:43.751Z,10.46
2023-02-16T11:00:44.688Z,10.48
2023-02-16T11:01:45.692Z,10.71
2023-02-16T11:02:47.007Z,10.69
2023-02-16T11:03:47.935Z,10.7
2023-02-16T11:04:48.909Z,10.61
2023-02-16T11:05:50.119Z,10.68
2023-02-16T11:06:51.048Z,10.92
2023-02-16T11:07:51.986Z,10.85
2023-02-16T11:08:52.933Z,10.84
2023-02-16T11:09:53.826Z,10.78
2023-02-16T11:10:54.783Z,10.81
2023-02-16T11:11:55.892Z,10.98
2023-02-16T11:12:56.822Z,11.17
2023-02-16T11:13:57.876Z,11.35
2023-02-16T11:14:58.805Z,11.35
2023-02-16T11:15:59.703Z,11.32
2023-02-16T11:17:00.949Z,11.54
2023-02-16T11:18:01.865Z,11.54
2023-02-16T11:19:02.804Z,11.64
2023-02-16T11:20:03.736Z,11.73
2023-02-16T11:21:04.897Z,11.77
2023-02-16T11:22:06.821Z,12.09
2023-02-16T11:23:07.749Z,12.5
2023-02-16T11:24:08.644Z,12.77
2023-02-16T11:25:09.554Z,12.2
2023-02-16T11:26:10.542Z,12.15
2023-02-16T11:27:11.766Z,12.54
2023-02-16T11:28:12.710Z,12.72
2023-02-16T11:29:13.662Z,12.9
2023-02-16T11:30:14.623Z,12.81
2023-02-16T11:31:16.123Z,12.87
2023-02-16T11:32:17.508Z,12.57
2023-02-16T11:33:18.448Z,12.76
2023-02-16T11:34:19.494Z,12.8
2023-02-16T11:35:20.534Z,13.11
2023-02-16T11:36:21.524Z,13.08
2023-02-16T11:37:22.408Z,13.22
2023-02-16T11:38:23.325Z,13.19
2023-02-16T11:39:24.271Z,13.47
2023-02-16T11:40:25.198Z,13.6
2023-02-16T11:41:26.234Z,13.46
2023-02-16T11:42:27.206Z,13.57
2023-02-16T11:43:28.081Z,13.53
2023-02-16T11:44:29.000Z,13.57
2023-02-16T11:45:31.407Z,13.8
2023-02-16T11:46:32.494Z,13.95
2023-02-16T11:47:33.568Z,14.22
2023-02-16T11:48:34.469Z,14.32
2023-02-16T11:49:35.374Z,14.73
2023-02-16T11:50:36.245Z,14.35
2023-02-16T11:51:37.124Z,14.28
2023-02-16T11:52:38.025Z,14
2023-02-16T11:53:39.062Z,14.45
2023-02-16T11:54:39.932Z,15.07
2023-02-16T11:55:40.851Z,14.96
2023-02-16T11:56:41.772Z,15.14
2023-02-16T11:57:42.712Z,15.29
2023-02-16T11:58:43.771Z,15.22
2023-02-16T11:59:44.738Z,15.49
2023-02-16T12:00:45.654Z,15.62
2023-02-16T12:01:46.535Z,15.44
2023-02-16T12:02:47.514Z,15.68
2023-02-16T12:03:48.397Z,15.66
2023-02-16T12:04:49.634Z,15.03
2023-02-16T12:05:50.512Z,14.93
2023-02-16T12:06:51.366Z,14.96
2023-02-16T12:07:52.414Z,15.19
2023-02-16T12:08:53.445Z,15.27
2023-02-16T12:09:54.315Z,15.36
2023-02-16T12:10:55.197Z,15.57
2023-02-16T12:11:56.128Z,15.6
2023-02-16T12:12:57.045Z,15.76
2023-02-16T12:13:57.929Z,15.81
2023-02-16T12:14:58.807Z,16.3
2023-02-16T12:15:59.748Z,15.96
2023-02-16T12:17:00.991Z,15.74
2023-02-16T12:18:01.848Z,15.61
2023-02-16T12:19:02.757Z,15.71
2023-02-16T12:20:03.627Z,15.82
2023-02-16T12:21:04.493Z,15.91
2023-02-16T12:22:05.382Z,15.95
2023-02-16T12:23:06.282Z,16.03
2023-02-16T12:24:07.408Z,16.19
2023-02-16T12:25:08.294Z,16.13
2023-02-16T12:26:09.208Z,16.04
2023-02-16T12:27:10.110Z,16.11
2023-02-16T12:28:13.283Z,16.26
2023-02-16T12:29:11.237Z,16.26
2023-02-16T12:30:12.249Z,16.45
2023-02-16T12:31:13.828Z,16.27
2023-02-16T12:32:14.908Z,16.33
2023-02-16T12:33:15.777Z,16.02
2023-02-16T12:34:16.669Z,16.28
2023-02-16T12:35:17.562Z,16.48
2023-02-16T12:36:18.413Z,16.8
2023-02-16T12:37:19.291Z,16.85
2023-02-16T12:38:20.178Z,16.33
2023-02-16T12:39:21.063Z,16.39
2023-02-16T12:40:21.944Z,16.31
2023-02-16T12:41:22.797Z,16.2
2023-02-16T12:42:23.668Z,16.61
2023-02-16T12:43:24.568Z,16.55
2023-02-16T12:44:25.421Z,16.37
2023-02-16T12:45:26.371Z,16.3
2023-02-16T12:46:27.684Z,16.41
2023-02-16T12:47:28.534Z,16.81
2023-02-16T12:48:29.403Z,16.56
2023-02-16T12:49:30.269Z,16.67
2023-02-16T12:50:31.128Z,16.77
2023-02-16T12:51:32.019Z,16.5
2023-02-16T12:52:32.882Z,16.25
2023-02-16T12:53:33.730Z,16.38
2023-02-16T12:54:34.688Z,16.3
2023-02-16T12:55:35.550Z,16.34
2023-02-16T12:56:36.415Z,16.27
2023-02-16T12:57:37.298Z,16.2
2023-02-16T12:58:38.354Z,16.5
2023-02-16T12:59:39.237Z,16.55
2023-02-16T13:00:40.172Z,16.19
2023-02-16T13:01:41.077Z,15.95
2023-02-16T13:02:41.967Z,16.06
2023-02-16T13:03:42.885Z,16.38
2023-02-16T13:04:44.141Z,16.67
2023-02-16T13:05:45.024Z,16.56
2023-02-16T13:06:45.890Z,16.67
2023-02-16T13:07:46.765Z,16.93
2023-02-16T13:08:47.634Z,17.04
2023-02-16T13:09:48.499Z,17.26
2023-02-16T13:10:49.389Z,17.22
2023-02-16T13:11:50.278Z,17.42
2023-02-16T13:12:51.165Z,17.24
2023-02-16T13:13:52.169Z,17.83
2023-02-16T13:14:54.084Z,18.15
2023-02-16T13:15:55.088Z,17.99
2023-02-16T13:16:56.013Z,18.22
2023-02-16T13:17:57.127Z,18.67
2023-02-16T13:18:58.055Z,18.59
2023-02-16T13:19:58.961Z,18.31
2023-02-16T13:20:59.864Z,18.26
2023-02-16T13:22:00.812Z,18.52
2023-02-16T13:23:01.777Z,18.42
2023-02-16T13:24:02.671Z,18.19
2023-02-16T13:25:03.589Z,18.3
2023-02-16T13:26:05.584Z,18.3
2023-02-16T13:27:05.061Z,18.54
2023-02-16T13:28:06.005Z,18.71
2023-02-16T13:29:07.373Z,18.41
2023-02-16T13:30:09.008Z,18.3